Decker, MT (59025)

9:09 AM MDT on August 21, 2014 (GMT -0600)
Tongue River Reservoir | Change Station
CLOSE
Current Station
Personal Weather Station
Location: Decker, MT
Elevation: 3486 ft
Nearby Weather Stations

Elev 3486 ft 45.13 °N, 106.78 °W | Updated 0 second ago

Clear
Clear
66.9 °F
Feels Like 66.9 °F
N
0.0
Wind Variable Wind from NW
Gusts 1.0 mph

Today
High -- | Low -- °F
--% Chance of Precip.
Yesterday
High -- | Low -- °F
Precip. -- in
6:15 AM 8:03 PM
Waning Crescent, 14% visible
Pressure 29.96 in
Visibility 10.0 miles
Clouds Clear
Dew Point 59 °F
Humidity 75%
Rainfall 0.00 in
Snow Depth Not available.
UV 3 out of 12
Pollen 8.50 out of 12
Air Quality Not available.
Flu Activity Not available.
METAR KSHR 211453Z AUTO 30006KT 10SM CLR 18/11 A3004 RMK AO2 SLP145 T01830106 51016

More Conditions Fewer Conditions

Pressure 29.96 in
Visibility 10.0 miles
Clouds Clear
Dew Point 59 °F
Humidity 75%
Rainfall 0.00 in
Snow Depth Not available.
UV 3 out of 12
Pollen 8.50 out of 12
Air Quality Not available.
Flu Activity Not available.
METAR KSHR 211453Z AUTO 30006KT 10SM CLR 18/11 A3004 RMK AO2 SLP145 T01830106 51016

More Conditions Fewer Conditions

10-Day Weather Forecast

Almanac

Astronomy

Aug. 21, 2014 Rise Set
Actual Time 6:15 AM MDT 8:03 PM MDT
Civil Twilight 5:44 AM MDT 8:34 PM MDT
Nautical Twilight 5:05 AM MDT 9:12 PM MDT
Astronomical Twilight 4:23 AM MDT 9:54 PM MDT
Moon 2:43 AM MDT 5:37 PM MDT
Length of Visible Light 14h 50m
Length of Day
13h 47m
Tomorrow will be 2m 56s shorter.
Waning Crescent, 14% of the Moon is Illuminated
Today
Waning Crescent
Aug 25
New
Sep 2
First Quarter
Sep 8
Full
Sep 15
Last Quarter

Today's Extremes

State Highs State Lows

Community

WunderPhotos

Upload Photos

1,745,945 photos uploaded!

Nearby

Snow Depth

Station Depth Elevation
Cole Creek 1 in 7850 ft
Burnt Mountain 1 in 5880 ft
White Mill 2 in 8700 ft
Fisher Creek 0 in 9100 ft
Northeast Entrance 0 in 7350 ft

Earthquake Activity

City Distance Mag. Time & Date
No recent earthquake activity has been reported nearby.
Minimum magnitude displayed is 2.5.

Coastal Water Temperatures

Place Temperature
No Stations Reporting

Nearby Weather Stations